createdAt,value
2022-08-10T00:08:23.896Z,99052.25
2022-08-10T00:28:26.736Z,99050.78
2022-08-10T00:48:29.261Z,99052.66
2022-08-10T01:08:31.958Z,99049.72
2022-08-10T01:28:34.420Z,99044.59
2022-08-10T01:48:37.018Z,99043.25
2022-08-10T02:08:39.746Z,99039.72
2022-08-10T02:28:42.183Z,99038.69
2022-08-10T02:48:44.920Z,99039.28
2022-08-10T03:08:47.606Z,99048.44
2022-08-10T03:28:50.079Z,99061.34
2022-08-10T03:48:52.806Z,99067.06
2022-08-10T04:08:55.253Z,99081.25
2022-08-10T04:28:57.972Z,99083.72
2022-08-10T04:49:01.937Z,99088.97
2022-08-10T05:09:04.810Z,99097.00
2022-08-10T05:29:07.250Z,99115.88
2022-08-10T05:49:09.762Z,99121.88
2022-08-10T06:09:12.261Z,99124.41
2022-08-10T06:29:14.689Z,99124.22
2022-08-10T06:49:17.160Z,99139.69
2022-08-10T07:09:19.765Z,99123.06
2022-08-10T07:29:24.713Z,99126.00
2022-08-10T07:49:45.910Z,99134.88
2022-08-10T08:09:57.821Z,99134.69
2022-08-10T08:30:03.439Z,99137.72
2022-08-10T08:50:09.399Z,99127.75
2022-08-10T09:10:12.558Z,99113.12
2022-08-10T09:30:17.411Z,99121.53
2022-08-10T09:50:20.334Z,99107.44
2022-08-10T10:10:22.825Z,99090.62
2022-08-10T10:30:25.329Z,99080.25
2022-08-10T10:50:27.863Z,99068.53
2022-08-10T11:10:34.218Z,99050.81
2022-08-10T11:30:37.670Z,99029.41
2022-08-10T11:50:40.238Z,99033.87
2022-08-10T12:10:43.831Z,99023.13
2022-08-10T12:30:46.652Z,99013.75
2022-08-10T12:50:49.132Z,98994.00
2022-08-10T13:10:51.768Z,98973.22
2022-08-10T13:30:54.239Z,98966.09
2022-08-10T13:50:57.025Z,98951.81
2022-08-10T14:11:09.902Z,98932.44
2022-08-10T14:31:17.470Z,98922.91
2022-08-10T14:51:22.623Z,98920.31
2022-08-10T15:12:15.712Z,98901.28
2022-08-10T15:32:07.043Z,98913.03
2022-08-10T15:52:09.702Z,98890.06
2022-08-10T16:12:12.416Z,98887.19
2022-08-10T16:32:14.985Z,98890.38
2022-08-10T16:52:19.521Z,98884.53
2022-08-10T17:12:22.271Z,98882.00
2022-08-10T17:32:24.748Z,98878.41
2022-08-10T17:52:27.444Z,98888.00
2022-08-10T18:12:36.117Z,98893.19
2022-08-10T18:32:40.914Z,98896.91
2022-08-10T18:52:43.420Z,98924.25
2022-08-10T19:12:46.131Z,98928.34
2022-08-10T19:32:49.232Z,98929.31
2022-08-10T19:52:51.860Z,98940.09
2022-08-10T20:12:54.809Z,98941.97
2022-08-10T20:33:01.642Z,98939.69
2022-08-10T20:53:05.185Z,98933.97
2022-08-10T21:13:07.874Z,98936.38
2022-08-10T21:33:10.786Z,98936.56
2022-08-10T21:53:44.936Z,98935.09
2022-08-10T22:14:06.521Z,98934.94
2022-08-10T22:34:31.181Z,98927.88
2022-08-10T22:54:52.674Z,98912.88
2022-08-10T23:15:14.077Z,98898.41
2022-08-10T23:36:31.131Z,98897.44
2022-08-10T23:55:49.395Z,98894.16
